sensor_id;sensor_type;location;lat;lon;timestamp;P1;durP1;ratioP1;P2;durP2;ratioP2
15114;SDS011;7658;51.456;7.622;2023-11-22T00:01:22;19.03;;;13.87;;
15114;SDS011;7658;51.456;7.622;2023-11-22T00:03:48;19.27;;;13.47;;
15114;SDS011;7658;51.456;7.622;2023-11-22T00:06:15;17.50;;;13.87;;
15114;SDS011;7658;51.456;7.622;2023-11-22T00:08:41;16.63;;;13.00;;
15114;SDS011;7658;51.456;7.622;2023-11-22T00:11:07;15.77;;;13.20;;
15114;SDS011;7658;51.456;7.622;2023-11-22T00:13:32;18.07;;;14.50;;
15114;SDS011;7658;51.456;7.622;2023-11-22T00:15:58;16.80;;;14.13;;
15114;SDS011;7658;51.456;7.622;2023-11-22T00:18:24;17.20;;;13.83;;
15114;SDS011;7658;51.456;7.622;2023-11-22T00:20:51;16.07;;;13.10;;
15114;SDS011;7658;51.456;7.622;2023-11-22T00:23:16;17.80;;;13.43;;
15114;SDS011;7658;51.456;7.622;2023-11-22T00:25:42;15.97;;;13.07;;
15114;SDS011;7658;51.456;7.622;2023-11-22T00:28:08;17.37;;;13.43;;
15114;SDS011;7658;51.456;7.622;2023-11-22T00:30:34;17.13;;;13.00;;
15114;SDS011;7658;51.456;7.622;2023-11-22T00:33:00;15.20;;;13.30;;
15114;SDS011;7658;51.456;7.622;2023-11-22T00:35:25;18.40;;;13.27;;
15114;SDS011;7658;51.456;7.622;2023-11-22T00:37:52;15.30;;;12.53;;
15114;SDS011;7658;51.456;7.622;2023-11-22T00:40:17;17.30;;;12.87;;
15114;SDS011;7658;51.456;7.622;2023-11-22T00:42:44;15.50;;;13.13;;
15114;SDS011;7658;51.456;7.622;2023-11-22T00:45:10;21.17;;;13.43;;
15114;SDS011;7658;51.456;7.622;2023-11-22T00:47:36;19.13;;;13.33;;
15114;SDS011;7658;51.456;7.622;2023-11-22T00:50:02;17.90;;;13.63;;
15114;SDS011;7658;51.456;7.622;2023-11-22T00:52:31;16.83;;;14.27;;
15114;SDS011;7658;51.456;7.622;2023-11-22T00:54:57;20.13;;;15.17;;
15114;SDS011;7658;51.456;7.622;2023-11-22T00:57:23;16.73;;;13.27;;
15114;SDS011;7658;51.456;7.622;2023-11-22T00:59:49;17.97;;;14.10;;
15114;SDS011;7658;51.456;7.622;2023-11-22T01:02:15;19.37;;;14.73;;
15114;SDS011;7658;51.456;7.622;2023-11-22T01:04:41;21.03;;;14.37;;
15114;SDS011;7658;51.456;7.622;2023-11-22T01:07:06;21.13;;;15.37;;
15114;SDS011;7658;51.456;7.622;2023-11-22T01:09:32;17.87;;;15.07;;
15114;SDS011;7658;51.456;7.622;2023-11-22T01:11:59;21.87;;;15.30;;
15114;SDS011;7658;51.456;7.622;2023-11-22T01:14:25;21.33;;;17.00;;
15114;SDS011;7658;51.456;7.622;2023-11-22T01:16:51;19.37;;;15.07;;
15114;SDS011;7658;51.456;7.622;2023-11-22T01:19:17;18.73;;;14.80;;
15114;SDS011;7658;51.456;7.622;2023-11-22T01:21:43;23.50;;;14.87;;
15114;SDS011;7658;51.456;7.622;2023-11-22T01:24:09;21.43;;;15.93;;
15114;SDS011;7658;51.456;7.622;2023-11-22T01:26:36;20.97;;;16.40;;
15114;SDS011;7658;51.456;7.622;2023-11-22T01:29:03;20.43;;;15.67;;
15114;SDS011;7658;51.456;7.622;2023-11-22T01:31:29;21.27;;;15.50;;
15114;SDS011;7658;51.456;7.622;2023-11-22T01:33:55;20.63;;;15.70;;
15114;SDS011;7658;51.456;7.622;2023-11-22T01:36:20;23.47;;;16.33;;
15114;SDS011;7658;51.456;7.622;2023-11-22T01:38:46;22.80;;;16.17;;
15114;SDS011;7658;51.456;7.622;2023-11-22T01:41:13;21.90;;;16.33;;
15114;SDS011;7658;51.456;7.622;2023-11-22T01:43:39;21.77;;;16.13;;
15114;SDS011;7658;51.456;7.622;2023-11-22T01:46:09;23.60;;;16.03;;
15114;SDS011;7658;51.456;7.622;2023-11-22T01:48:42;20.60;;;14.90;;
15114;SDS011;7658;51.456;7.622;2023-11-22T01:51:08;19.50;;;15.30;;
15114;SDS011;7658;51.456;7.622;2023-11-22T01:53:33;17.60;;;14.67;;
15114;SDS011;7658;51.456;7.622;2023-11-22T01:56:00;18.53;;;15.30;;
15114;SDS011;7658;51.456;7.622;2023-11-22T01:58:27;19.47;;;14.27;;
15114;SDS011;7658;51.456;7.622;2023-11-22T02:00:53;19.07;;;14.63;;
15114;SDS011;7658;51.456;7.622;2023-11-22T02:03:19;17.93;;;15.10;;
15114;SDS011;7658;51.456;7.622;2023-11-22T02:05:46;17.83;;;14.47;;
15114;SDS011;7658;51.456;7.622;2023-11-22T02:08:12;19.13;;;14.30;;
15114;SDS011;7658;51.456;7.622;2023-11-22T02:10:38;17.63;;;14.37;;
15114;SDS011;7658;51.456;7.622;2023-11-22T02:13:06;19.77;;;14.23;;
15114;SDS011;7658;51.456;7.622;2023-11-22T02:15:35;17.00;;;13.33;;
15114;SDS011;7658;51.456;7.622;2023-11-22T02:18:01;16.27;;;13.73;;
15114;SDS011;7658;51.456;7.622;2023-11-22T02:20:28;16.97;;;13.03;;
15114;SDS011;7658;51.456;7.622;2023-11-22T02:22:55;16.33;;;13.07;;
15114;SDS011;7658;51.456;7.622;2023-11-22T02:25:22;16.40;;;12.70;;
15114;SDS011;7658;51.456;7.622;2023-11-22T02:27:47;15.20;;;12.23;;
15114;SDS011;7658;51.456;7.622;2023-11-22T02:30:13;14.60;;;12.17;;
15114;SDS011;7658;51.456;7.622;2023-11-22T02:32:40;14.03;;;11.67;;
15114;SDS011;7658;51.456;7.622;2023-11-22T02:35:06;12.67;;;11.30;;
15114;SDS011;7658;51.456;7.622;2023-11-22T02:37:35;15.37;;;11.57;;
15114;SDS011;7658;51.456;7.622;2023-11-22T02:42:34;12.07;;;10.00;;
15114;SDS011;7658;51.456;7.622;2023-11-22T02:45:00;14.57;;;10.27;;
15114;SDS011;7658;51.456;7.622;2023-11-22T02:47:26;13.57;;;10.40;;
15114;SDS011;7658;51.456;7.622;2023-11-22T02:49:52;11.60;;;10.03;;
15114;SDS011;7658;51.456;7.622;2023-11-22T02:52:20;12.07;;;10.77;;
15114;SDS011;7658;51.456;7.622;2023-11-22T02:54:46;12.27;;;10.30;;
15114;SDS011;7658;51.456;7.622;2023-11-22T02:57:12;10.40;;;9.37;;
15114;SDS011;7658;51.456;7.622;2023-11-22T02:59:41;10.67;;;9.63;;
15114;SDS011;7658;51.456;7.622;2023-11-22T03:02:08;10.63;;;9.50;;
15114;SDS011;7658;51.456;7.622;2023-11-22T03:04:33;10.47;;;9.23;;
15114;SDS011;7658;51.456;7.622;2023-11-22T03:06:59;11.17;;;9.53;;
15114;SDS011;7658;51.456;7.622;2023-11-22T03:09:25;10.87;;;9.37;;
15114;SDS011;7658;51.456;7.622;2023-11-22T03:11:51;10.00;;;9.00;;
15114;SDS011;7658;51.456;7.622;2023-11-22T03:14:17;11.40;;;8.90;;
15114;SDS011;7658;51.456;7.622;2023-11-22T03:16:44;11.53;;;8.67;;
15114;SDS011;7658;51.456;7.622;2023-11-22T03:19:10;13.37;;;8.40;;
15114;SDS011;7658;51.456;7.622;2023-11-22T03:21:38;10.03;;;9.03;;
15114;SDS011;7658;51.456;7.622;2023-11-22T03:24:04;9.47;;;8.57;;
15114;SDS011;7658;51.456;7.622;2023-11-22T03:26:31;11.03;;;9.30;;
15114;SDS011;7658;51.456;7.622;2023-11-22T03:28:56;9.80;;;8.77;;
15114;SDS011;7658;51.456;7.622;2023-11-22T03:31:22;10.53;;;9.43;;
15114;SDS011;7658;51.456;7.622;2023-11-22T03:33:48;9.63;;;8.63;;
15114;SDS011;7658;51.456;7.622;2023-11-22T03:36:14;13.10;;;8.73;;
15114;SDS011;7658;51.456;7.622;2023-11-22T03:38:39;10.47;;;8.90;;
15114;SDS011;7658;51.456;7.622;2023-11-22T03:41:05;10.27;;;9.20;;
15114;SDS011;7658;51.456;7.622;2023-11-22T03:43:31;10.00;;;8.97;;
15114;SDS011;7658;51.456;7.622;2023-11-22T03:45:57;10.63;;;9.37;;
15114;SDS011;7658;51.456;7.622;2023-11-22T03:48:22;10.67;;;8.87;;
15114;SDS011;7658;51.456;7.622;2023-11-22T03:50:49;11.37;;;8.83;;
15114;SDS011;7658;51.456;7.622;2023-11-22T03:53:15;9.60;;;8.33;;
15114;SDS011;7658;51.456;7.622;2023-11-22T03:55:41;11.60;;;8.77;;
15114;SDS011;7658;51.456;7.622;2023-11-22T03:58:07;9.73;;;8.20;;
15114;SDS011;7658;51.456;7.622;2023-11-22T04:00:33;13.17;;;9.07;;
15114;SDS011;7658;51.456;7.622;2023-11-22T04:03:00;10.40;;;9.23;;
15114;SDS011;7658;51.456;7.622;2023-11-22T04:05:27;11.33;;;8.80;;
15114;SDS011;7658;51.456;7.622;2023-11-22T04:07:53;10.40;;;8.80;;
15114;SDS011;7658;51.456;7.622;2023-11-22T04:10:19;10.57;;;9.13;;
15114;SDS011;7658;51.456;7.622;2023-11-22T04:12:46;10.63;;;9.40;;
15114;SDS011;7658;51.456;7.622;2023-11-22T04:15:13;12.90;;;9.37;;
15114;SDS011;7658;51.456;7.622;2023-11-22T04:17:39;10.23;;;9.23;;
15114;SDS011;7658;51.456;7.622;2023-11-22T04:20:06;12.13;;;9.53;;
15114;SDS011;7658;51.456;7.622;2023-11-22T04:22:42;11.40;;;10.27;;
15114;SDS011;7658;51.456;7.622;2023-11-22T04:25:12;10.90;;;9.43;;
15114;SDS011;7658;51.456;7.622;2023-11-22T04:27:40;11.73;;;9.60;;
15114;SDS011;7658;51.456;7.622;2023-11-22T04:30:07;15.97;;;10.93;;
15114;SDS011;7658;51.456;7.622;2023-11-22T04:32:38;10.63;;;9.53;;
15114;SDS011;7658;51.456;7.622;2023-11-22T04:35:04;11.47;;;9.67;;
15114;SDS011;7658;51.456;7.622;2023-11-22T04:37:31;10.70;;;9.60;;
15114;SDS011;7658;51.456;7.622;2023-11-22T04:39:59;10.00;;;8.80;;
15114;SDS011;7658;51.456;7.622;2023-11-22T04:42:32;14.67;;;9.63;;
15114;SDS011;7658;51.456;7.622;2023-11-22T04:44:59;10.53;;;9.43;;
15114;SDS011;7658;51.456;7.622;2023-11-22T04:47:25;10.17;;;8.87;;
15114;SDS011;7658;51.456;7.622;2023-11-22T04:49:50;10.33;;;9.30;;
15114;SDS011;7658;51.456;7.622;2023-11-22T04:52:16;10.13;;;9.13;;
15114;SDS011;7658;51.456;7.622;2023-11-22T04:54:42;10.40;;;9.20;;
15114;SDS011;7658;51.456;7.622;2023-11-22T04:57:08;10.07;;;8.93;;
15114;SDS011;7658;51.456;7.622;2023-11-22T04:59:33;10.33;;;9.23;;
15114;SDS011;7658;51.456;7.622;2023-11-22T05:01:59;9.87;;;8.87;;
15114;SDS011;7658;51.456;7.622;2023-11-22T05:04:25;9.63;;;8.73;;
15114;SDS011;7658;51.456;7.622;2023-11-22T05:06:52;9.97;;;8.90;;
15114;SDS011;7658;51.456;7.622;2023-11-22T05:09:18;11.03;;;9.70;;
15114;SDS011;7658;51.456;7.622;2023-11-22T05:11:45;10.70;;;9.40;;
15114;SDS011;7658;51.456;7.622;2023-11-22T05:14:11;10.83;;;9.83;;
15114;SDS011;7658;51.456;7.622;2023-11-22T05:16:38;9.80;;;8.80;;
15114;SDS011;7658;51.456;7.622;2023-11-22T05:19:04;10.20;;;8.97;;
15114;SDS011;7658;51.456;7.622;2023-11-22T05:21:30;11.23;;;9.47;;
15114;SDS011;7658;51.456;7.622;2023-11-22T05:23:57;9.90;;;8.90;;
15114;SDS011;7658;51.456;7.622;2023-11-22T05:26:24;10.97;;;9.07;;
15114;SDS011;7658;51.456;7.622;2023-11-22T05:28:50;10.27;;;9.23;;
15114;SDS011;7658;51.456;7.622;2023-11-22T05:31:15;10.03;;;9.03;;
15114;SDS011;7658;51.456;7.622;2023-11-22T05:33:41;11.23;;;9.30;;
15114;SDS011;7658;51.456;7.622;2023-11-22T05:36:07;10.47;;;9.30;;
15114;SDS011;7658;51.456;7.622;2023-11-22T05:38:36;11.33;;;10.13;;
15114;SDS011;7658;51.456;7.622;2023-11-22T05:41:03;10.23;;;9.33;;
15114;SDS011;7658;51.456;7.622;2023-11-22T05:43:29;11.00;;;9.80;;
15114;SDS011;7658;51.456;7.622;2023-11-22T05:45:55;12.40;;;9.80;;
15114;SDS011;7658;51.456;7.622;2023-11-22T05:48:21;10.37;;;9.10;;
15114;SDS011;7658;51.456;7.622;2023-11-22T05:50:47;11.43;;;9.90;;
15114;SDS011;7658;51.456;7.622;2023-11-22T05:53:13;16.67;;;10.20;;
15114;SDS011;7658;51.456;7.622;2023-11-22T05:55:46;11.03;;;9.70;;
15114;SDS011;7658;51.456;7.622;2023-11-22T05:58:16;10.80;;;9.10;;
15114;SDS011;7658;51.456;7.622;2023-11-22T06:00:43;11.93;;;9.87;;
15114;SDS011;7658;51.456;7.622;2023-11-22T06:03:09;12.90;;;9.30;;
15114;SDS011;7658;51.456;7.622;2023-11-22T06:05:36;11.40;;;10.13;;
15114;SDS011;7658;51.456;7.622;2023-11-22T06:08:02;12.83;;;9.77;;
15114;SDS011;7658;51.456;7.622;2023-11-22T06:10:28;12.70;;;9.90;;
15114;SDS011;7658;51.456;7.622;2023-11-22T06:12:54;11.60;;;9.97;;
15114;SDS011;7658;51.456;7.622;2023-11-22T06:15:19;10.73;;;9.20;;
15114;SDS011;7658;51.456;7.622;2023-11-22T06:17:47;10.80;;;9.70;;
15114;SDS011;7658;51.456;7.622;2023-11-22T06:20:13;10.10;;;9.17;;
15114;SDS011;7658;51.456;7.622;2023-11-22T06:22:40;10.33;;;9.30;;
15114;SDS011;7658;51.456;7.622;2023-11-22T06:25:08;11.80;;;9.93;;
15114;SDS011;7658;51.456;7.622;2023-11-22T06:27:35;11.90;;;10.53;;
15114;SDS011;7658;51.456;7.622;2023-11-22T06:30:01;14.63;;;10.63;;
15114;SDS011;7658;51.456;7.622;2023-11-22T06:32:28;11.13;;;10.00;;
15114;SDS011;7658;51.456;7.622;2023-11-22T06:34:54;10.83;;;9.73;;
15114;SDS011;7658;51.456;7.622;2023-11-22T06:37:20;13.47;;;10.30;;
15114;SDS011;7658;51.456;7.622;2023-11-22T06:39:46;11.97;;;10.13;;
15114;SDS011;7658;51.456;7.622;2023-11-22T06:42:12;10.27;;;9.17;;
15114;SDS011;7658;51.456;7.622;2023-11-22T06:44:38;12.27;;;10.23;;
15114;SDS011;7658;51.456;7.622;2023-11-22T06:47:07;12.93;;;10.23;;
15114;SDS011;7658;51.456;7.622;2023-11-22T06:49:33;11.70;;;10.13;;
15114;SDS011;7658;51.456;7.622;2023-11-22T06:51:59;14.40;;;9.50;;
15114;SDS011;7658;51.456;7.622;2023-11-22T06:54:25;11.03;;;9.90;;
15114;SDS011;7658;51.456;7.622;2023-11-22T06:56:51;13.43;;;10.13;;
15114;SDS011;7658;51.456;7.622;2023-11-22T06:59:18;11.03;;;9.90;;
15114;SDS011;7658;51.456;7.622;2023-11-22T07:01:44;15.57;;;10.00;;
15114;SDS011;7658;51.456;7.622;2023-11-22T07:04:10;11.00;;;9.73;;
15114;SDS011;7658;51.456;7.622;2023-11-22T07:06:36;10.67;;;9.37;;
15114;SDS011;7658;51.456;7.622;2023-11-22T07:09:05;13.77;;;9.30;;
15114;SDS011;7658;51.456;7.622;2023-11-22T07:11:34;10.50;;;9.50;;
15114;SDS011;7658;51.456;7.622;2023-11-22T07:14:02;11.83;;;9.90;;
15114;SDS011;7658;51.456;7.622;2023-11-22T07:16:29;11.00;;;9.90;;
15114;SDS011;7658;51.456;7.622;2023-11-22T07:18:55;11.43;;;9.77;;
15114;SDS011;7658;51.456;7.622;2023-11-22T07:21:21;12.23;;;9.73;;
15114;SDS011;7658;51.456;7.622;2023-11-22T07:23:47;11.87;;;9.97;;
15114;SDS011;7658;51.456;7.622;2023-11-22T07:26:13;10.90;;;8.87;;
15114;SDS011;7658;51.456;7.622;2023-11-22T07:28:40;11.20;;;9.60;;
15114;SDS011;7658;51.456;7.622;2023-11-22T07:31:09;11.80;;;10.60;;
15114;SDS011;7658;51.456;7.622;2023-11-22T07:33:36;14.90;;;11.33;;
15114;SDS011;7658;51.456;7.622;2023-11-22T07:36:04;12.83;;;10.87;;
15114;SDS011;7658;51.456;7.622;2023-11-22T07:38:30;13.03;;;10.87;;
15114;SDS011;7658;51.456;7.622;2023-11-22T07:40:57;12.33;;;10.03;;
15114;SDS011;7658;51.456;7.622;2023-11-22T07:43:23;12.17;;;10.67;;
15114;SDS011;7658;51.456;7.622;2023-11-22T07:45:49;13.63;;;10.80;;
15114;SDS011;7658;51.456;7.622;2023-11-22T07:48:16;12.17;;;10.80;;
15114;SDS011;7658;51.456;7.622;2023-11-22T07:50:42;11.37;;;10.27;;
15114;SDS011;7658;51.456;7.622;2023-11-22T07:53:14;12.27;;;10.97;;
15114;SDS011;7658;51.456;7.622;2023-11-22T07:55:39;13.47;;;11.27;;
15114;SDS011;7658;51.456;7.622;2023-11-22T07:58:07;12.57;;;10.73;;
15114;SDS011;7658;51.456;7.622;2023-11-22T08:00:33;13.50;;;11.27;;
15114;SDS011;7658;51.456;7.622;2023-11-22T08:03:00;14.70;;;10.37;;
15114;SDS011;7658;51.456;7.622;2023-11-22T08:05:29;11.00;;;9.90;;
15114;SDS011;7658;51.456;7.622;2023-11-22T08:08:00;12.80;;;10.80;;
15114;SDS011;7658;51.456;7.622;2023-11-22T08:10:33;11.80;;;10.60;;
15114;SDS011;7658;51.456;7.622;2023-11-22T08:13:00;13.53;;;10.90;;
15114;SDS011;7658;51.456;7.622;2023-11-22T08:15:26;14.40;;;11.47;;
15114;SDS011;7658;51.456;7.622;2023-11-22T08:17:52;14.83;;;12.40;;
15114;SDS011;7658;51.456;7.622;2023-11-22T08:20:17;18.53;;;13.43;;
15114;SDS011;7658;51.456;7.622;2023-11-22T08:22:44;13.83;;;11.97;;
15114;SDS011;7658;51.456;7.622;2023-11-22T08:25:16;13.90;;;11.53;;
15114;SDS011;7658;51.456;7.622;2023-11-22T08:27:42;12.80;;;11.47;;
15114;SDS011;7658;51.456;7.622;2023-11-22T08:30:08;13.67;;;11.80;;
15114;SDS011;7658;51.456;7.622;2023-11-22T08:32:44;15.47;;;11.53;;
15114;SDS011;7658;51.456;7.622;2023-11-22T08:35:13;14.13;;;12.63;;
15114;SDS011;7658;51.456;7.622;2023-11-22T08:37:41;13.77;;;12.23;;
15114;SDS011;7658;51.456;7.622;2023-11-22T08:40:07;15.33;;;13.37;;
15114;SDS011;7658;51.456;7.622;2023-11-22T08:42:39;14.20;;;12.03;;
15114;SDS011;7658;51.456;7.622;2023-11-22T08:45:06;16.80;;;13.57;;
15114;SDS011;7658;51.456;7.622;2023-11-22T08:47:33;16.33;;;12.87;;
15114;SDS011;7658;51.456;7.622;2023-11-22T08:49:59;15.77;;;13.60;;
15114;SDS011;7658;51.456;7.622;2023-11-22T08:52:28;16.13;;;12.93;;
15114;SDS011;7658;51.456;7.622;2023-11-22T08:54:56;15.37;;;12.40;;
15114;SDS011;7658;51.456;7.622;2023-11-22T08:57:22;16.37;;;11.73;;
15114;SDS011;7658;51.456;7.622;2023-11-22T08:59:47;14.10;;;11.50;;
15114;SDS011;7658;51.456;7.622;2023-11-22T09:02:14;17.40;;;11.97;;
15114;SDS011;7658;51.456;7.622;2023-11-22T09:04:41;14.20;;;11.77;;
15114;SDS011;7658;51.456;7.622;2023-11-22T09:07:07;13.63;;;11.73;;
15114;SDS011;7658;51.456;7.622;2023-11-22T09:09:35;13.53;;;11.40;;
15114;SDS011;7658;51.456;7.622;2023-11-22T09:12:01;13.90;;;11.00;;
15114;SDS011;7658;51.456;7.622;2023-11-22T09:14:27;14.70;;;12.07;;
15114;SDS011;7658;51.456;7.622;2023-11-22T09:16:53;12.87;;;11.40;;
15114;SDS011;7658;51.456;7.622;2023-11-22T09:19:22;13.17;;;11.73;;
15114;SDS011;7658;51.456;7.622;2023-11-22T09:21:48;14.90;;;11.53;;
15114;SDS011;7658;51.456;7.622;2023-11-22T09:24:14;12.30;;;10.33;;
15114;SDS011;7658;51.456;7.622;2023-11-22T09:26:40;13.03;;;10.83;;
15114;SDS011;7658;51.456;7.622;2023-11-22T09:29:07;15.67;;;11.13;;
15114;SDS011;7658;51.456;7.622;2023-11-22T09:31:34;15.20;;;11.23;;
15114;SDS011;7658;51.456;7.622;2023-11-22T09:34:01;12.33;;;10.30;;
15114;SDS011;7658;51.456;7.622;2023-11-22T09:36:28;13.93;;;10.97;;
15114;SDS011;7658;51.456;7.622;2023-11-22T09:38:57;12.90;;;10.60;;
15114;SDS011;7658;51.456;7.622;2023-11-22T09:41:23;12.37;;;11.17;;
15114;SDS011;7658;51.456;7.622;2023-11-22T09:43:52;13.93;;;10.97;;
15114;SDS011;7658;51.456;7.622;2023-11-22T09:46:19;14.63;;;11.77;;
15114;SDS011;7658;51.456;7.622;2023-11-22T09:48:48;12.00;;;10.10;;
15114;SDS011;7658;51.456;7.622;2023-11-22T09:51:21;14.10;;;10.33;;
15114;SDS011;7658;51.456;7.622;2023-11-22T09:53:56;15.93;;;10.80;;
15114;SDS011;7658;51.456;7.622;2023-11-22T09:56:25;11.13;;;10.03;;
15114;SDS011;7658;51.456;7.622;2023-11-22T09:58:53;12.73;;;10.93;;
15114;SDS011;7658;51.456;7.622;2023-11-22T10:01:22;12.03;;;10.40;;
15114;SDS011;7658;51.456;7.622;2023-11-22T10:03:49;13.43;;;10.40;;
15114;SDS011;7658;51.456;7.622;2023-11-22T10:06:15;12.00;;;10.80;;
15114;SDS011;7658;51.456;7.622;2023-11-22T10:08:42;10.77;;;9.30;;
15114;SDS011;7658;51.456;7.622;2023-11-22T10:11:12;11.37;;;10.20;;
15114;SDS011;7658;51.456;7.622;2023-11-22T10:13:49;11.63;;;10.30;;
15114;SDS011;7658;51.456;7.622;2023-11-22T10:16:16;12.27;;;10.17;;
15114;SDS011;7658;51.456;7.622;2023-11-22T10:18:44;15.73;;;10.30;;
15114;SDS011;7658;51.456;7.622;2023-11-22T10:21:31;11.43;;;9.67;;
15114;SDS011;7658;51.456;7.622;2023-11-22T10:23:59;11.83;;;9.80;;
15114;SDS011;7658;51.456;7.622;2023-11-22T10:26:29;13.80;;;9.93;;
15114;SDS011;7658;51.456;7.622;2023-11-22T10:28:55;12.67;;;10.13;;
15114;SDS011;7658;51.456;7.622;2023-11-22T10:31:22;10.27;;;9.03;;
15114;SDS011;7658;51.456;7.622;2023-11-22T10:33:49;13.07;;;10.27;;
15114;SDS011;7658;51.456;7.622;2023-11-22T10:36:16;10.83;;;9.77;;
15114;SDS011;7658;51.456;7.622;2023-11-22T10:38:49;11.17;;;9.73;;
15114;SDS011;7658;51.456;7.622;2023-11-22T10:41:16;12.93;;;9.93;;
15114;SDS011;7658;51.456;7.622;2023-11-22T10:43:42;9.97;;;8.90;;
15114;SDS011;7658;51.456;7.622;2023-11-22T10:46:10;11.67;;;9.50;;
15114;SDS011;7658;51.456;7.622;2023-11-22T10:48:38;9.40;;;8.47;;
15114;SDS011;7658;51.456;7.622;2023-11-22T10:51:04;10.07;;;9.03;;
15114;SDS011;7658;51.456;7.622;2023-11-22T10:53:32;10.90;;;9.80;;
15114;SDS011;7658;51.456;7.622;2023-11-22T10:56:03;10.67;;;8.70;;
15114;SDS011;7658;51.456;7.622;2023-11-22T10:58:37;9.60;;;8.70;;
15114;SDS011;7658;51.456;7.622;2023-11-22T11:01:23;9.60;;;8.70;;
15114;SDS011;7658;51.456;7.622;2023-11-22T11:04:42;11.07;;;9.20;;
15114;SDS011;7658;51.456;7.622;2023-11-22T11:06:51;9.77;;;8.73;;
15114;SDS011;7658;51.456;7.622;2023-11-22T11:09:19;11.23;;;7.83;;
15114;SDS011;7658;51.456;7.622;2023-11-22T11:11:49;12.97;;;8.00;;
15114;SDS011;7658;51.456;7.622;2023-11-22T11:14:15;10.30;;;8.50;;
15114;SDS011;7658;51.456;7.622;2023-11-22T11:16:42;8.90;;;8.00;;
15114;SDS011;7658;51.456;7.622;2023-11-22T11:19:15;9.63;;;8.67;;
15114;SDS011;7658;51.456;7.622;2023-11-22T11:21:47;12.90;;;9.10;;
15114;SDS011;7658;51.456;7.622;2023-11-22T11:24:13;9.00;;;8.10;;
15114;SDS011;7658;51.456;7.622;2023-11-22T11:26:40;9.87;;;8.77;;
15114;SDS011;7658;51.456;7.622;2023-11-22T11:29:05;9.40;;;8.50;;
15114;SDS011;7658;51.456;7.622;2023-11-22T11:31:33;8.70;;;7.90;;
15114;SDS011;7658;51.456;7.622;2023-11-22T11:34:07;9.53;;;8.27;;
15114;SDS011;7658;51.456;7.622;2023-11-22T11:36:33;10.70;;;8.37;;
15114;SDS011;7658;51.456;7.622;2023-11-22T11:39:04;8.97;;;8.07;;
15114;SDS011;7658;51.456;7.622;2023-11-22T11:41:34;10.70;;;8.20;;
15114;SDS011;7658;51.456;7.622;2023-11-22T11:44:06;9.43;;;8.47;;
15114;SDS011;7658;51.456;7.622;2023-11-22T11:46:34;10.30;;;8.77;;
15114;SDS011;7658;51.456;7.622;2023-11-22T11:49:03;9.63;;;8.50;;
15114;SDS011;7658;51.456;7.622;2023-11-22T11:51:35;8.63;;;7.77;;
15114;SDS011;7658;51.456;7.622;2023-11-22T11:54:02;10.30;;;9.20;;
15114;SDS011;7658;51.456;7.622;2023-11-22T11:56:29;10.00;;;8.80;;
15114;SDS011;7658;51.456;7.622;2023-11-22T11:58:57;9.63;;;8.67;;
15114;SDS011;7658;51.456;7.622;2023-11-22T12:01:24;9.83;;;8.93;;
15114;SDS011;7658;51.456;7.622;2023-11-22T12:03:54;9.67;;;8.57;;
15114;SDS011;7658;51.456;7.622;2023-11-22T12:06:20;8.87;;;7.90;;
15114;SDS011;7658;51.456;7.622;2023-11-22T12:08:46;9.30;;;8.40;;
15114;SDS011;7658;51.456;7.622;2023-11-22T12:11:13;8.90;;;8.00;;
15114;SDS011;7658;51.456;7.622;2023-11-22T12:13:41;10.10;;;8.93;;
15114;SDS011;7658;51.456;7.622;2023-11-22T12:16:13;8.87;;;7.97;;
15114;SDS011;7658;51.456;7.622;2023-11-22T12:18:44;9.57;;;8.27;;
15114;SDS011;7658;51.456;7.622;2023-11-22T12:21:12;9.27;;;8.47;;
15114;SDS011;7658;51.456;7.622;2023-11-22T12:23:40;9.27;;;7.90;;
15114;SDS011;7658;51.456;7.622;2023-11-22T12:26:14;9.30;;;8.33;;
15114;SDS011;7658;51.456;7.622;2023-11-22T12:28:41;8.90;;;8.00;;
15114;SDS011;7658;51.456;7.622;2023-11-22T12:31:12;9.23;;;7.87;;
15114;SDS011;7658;51.456;7.622;2023-11-22T12:33:40;10.57;;;8.57;;
15114;SDS011;7658;51.456;7.622;2023-11-22T12:36:07;8.97;;;8.07;;
15114;SDS011;7658;51.456;7.622;2023-11-22T12:38:35;8.93;;;8.13;;
15114;SDS011;7658;51.456;7.622;2023-11-22T12:41:05;11.97;;;7.83;;
15114;SDS011;7658;51.456;7.622;2023-11-22T12:43:31;9.77;;;7.87;;
15114;SDS011;7658;51.456;7.622;2023-11-22T12:45:58;8.83;;;8.00;;
15114;SDS011;7658;51.456;7.622;2023-11-22T12:48:28;8.80;;;7.43;;
15114;SDS011;7658;51.456;7.622;2023-11-22T12:50:55;9.03;;;8.10;;
15114;SDS011;7658;51.456;7.622;2023-11-22T12:53:22;8.00;;;7.20;;
15114;SDS011;7658;51.456;7.622;2023-11-22T12:55:51;8.67;;;7.77;;
15114;SDS011;7658;51.456;7.622;2023-11-22T12:58:21;8.00;;;7.20;;
15114;SDS011;7658;51.456;7.622;2023-11-22T13:00:49;8.40;;;7.10;;
15114;SDS011;7658;51.456;7.622;2023-11-22T13:03:23;9.73;;;8.20;;
15114;SDS011;7658;51.456;7.622;2023-11-22T13:05:50;8.40;;;7.60;;
15114;SDS011;7658;51.456;7.622;2023-11-22T13:08:19;8.90;;;8.00;;
15114;SDS011;7658;51.456;7.622;2023-11-22T13:10:47;8.80;;;7.73;;
15114;SDS011;7658;51.456;7.622;2023-11-22T13:13:22;11.03;;;7.77;;
15114;SDS011;7658;51.456;7.622;2023-11-22T13:15:48;10.37;;;7.47;;
15114;SDS011;7658;51.456;7.622;2023-11-22T13:18:15;8.77;;;7.87;;
15114;SDS011;7658;51.456;7.622;2023-11-22T13:20:41;9.13;;;8.23;;
15114;SDS011;7658;51.456;7.622;2023-11-22T13:23:08;8.77;;;7.80;;
15114;SDS011;7658;51.456;7.622;2023-11-22T13:25:33;9.03;;;8.10;;
15114;SDS011;7658;51.456;7.622;2023-11-22T13:27:59;9.83;;;7.90;;
15114;SDS011;7658;51.456;7.622;2023-11-22T13:30:25;8.47;;;7.57;;
15114;SDS011;7658;51.456;7.622;2023-11-22T13:32:52;8.57;;;7.67;;
15114;SDS011;7658;51.456;7.622;2023-11-22T13:35:21;11.23;;;8.53;;
15114;SDS011;7658;51.456;7.622;2023-11-22T13:37:47;9.40;;;8.27;;
15114;SDS011;7658;51.456;7.622;2023-11-22T13:40:14;8.20;;;7.50;;
15114;SDS011;7658;51.456;7.622;2023-11-22T13:42:45;8.60;;;7.80;;
15114;SDS011;7658;51.456;7.622;2023-11-22T13:45:13;8.00;;;7.20;;
15114;SDS011;7658;51.456;7.622;2023-11-22T13:47:48;7.37;;;6.73;;
15114;SDS011;7658;51.456;7.622;2023-11-22T13:50:28;8.23;;;7.43;;
15114;SDS011;7658;51.456;7.622;2023-11-22T13:52:55;7.57;;;6.43;;
15114;SDS011;7658;51.456;7.622;2023-11-22T13:55:21;7.47;;;6.87;;
15114;SDS011;7658;51.456;7.622;2023-11-22T13:57:49;8.33;;;7.50;;
15114;SDS011;7658;51.456;7.622;2023-11-22T14:00:18;11.47;;;6.90;;
15114;SDS011;7658;51.456;7.622;2023-11-22T14:02:51;8.40;;;7.60;;
15114;SDS011;7658;51.456;7.622;2023-11-22T14:05:29;8.13;;;7.33;;
15114;SDS011;7658;51.456;7.622;2023-11-22T14:07:55;9.90;;;7.63;;
15114;SDS011;7658;51.456;7.622;2023-11-22T14:10:21;8.27;;;7.30;;
15114;SDS011;7658;51.456;7.622;2023-11-22T14:12:48;8.30;;;6.83;;
15114;SDS011;7658;51.456;7.622;2023-11-22T14:15:14;7.67;;;6.77;;
15114;SDS011;7658;51.456;7.622;2023-11-22T14:17:40;11.37;;;6.93;;
15114;SDS011;7658;51.456;7.622;2023-11-22T14:22:36;6.83;;;6.13;;
15114;SDS011;7658;51.456;7.622;2023-11-22T14:25:04;7.90;;;6.93;;
15114;SDS011;7658;51.456;7.622;2023-11-22T14:27:36;7.20;;;6.50;;
15114;SDS011;7658;51.456;7.622;2023-11-22T14:30:05;8.00;;;7.23;;
15114;SDS011;7658;51.456;7.622;2023-11-22T14:32:34;8.97;;;8.17;;
15114;SDS011;7658;51.456;7.622;2023-11-22T14:35:03;8.93;;;7.70;;
15114;SDS011;7658;51.456;7.622;2023-11-22T14:37:30;9.60;;;7.73;;
15114;SDS011;7658;51.456;7.622;2023-11-22T14:39:56;7.77;;;7.10;;
15114;SDS011;7658;51.456;7.622;2023-11-22T14:42:22;7.77;;;6.77;;
15114;SDS011;7658;51.456;7.622;2023-11-22T14:44:51;8.63;;;7.10;;
15114;SDS011;7658;51.456;7.622;2023-11-22T14:47:17;8.33;;;7.53;;
15114;SDS011;7658;51.456;7.622;2023-11-22T14:49:52;7.53;;;6.60;;
15114;SDS011;7658;51.456;7.622;2023-11-22T14:52:19;7.73;;;7.03;;